createdAt,value
2023-02-24T00:02:06.218Z,2.60
2023-02-24T00:04:41.598Z,2.85
2023-02-24T00:07:16.921Z,2.67
2023-02-24T00:09:49.363Z,1.95
2023-02-24T00:12:17.136Z,2.33
2023-02-24T00:14:45.394Z,2.45
2023-02-24T00:17:14.715Z,3.40
2023-02-24T00:19:42.040Z,1.98
2023-02-24T00:22:09.894Z,2.75
2023-02-24T00:24:37.076Z,2.80
2023-02-24T00:27:12.535Z,2.47
2023-02-24T00:29:42.038Z,2.30
2023-02-24T00:32:13.468Z,3.33
2023-02-24T00:34:41.406Z,3.13
2023-02-24T00:37:08.774Z,2.35
2023-02-24T00:39:42.101Z,2.88
2023-02-24T00:42:12.049Z,2.80
2023-02-24T00:44:45.846Z,3.05
2023-02-24T00:47:16.508Z,2.38
2023-02-24T00:49:43.830Z,2.72
2023-02-24T00:52:17.041Z,2.58
2023-02-24T00:54:46.013Z,2.42
2023-02-24T00:57:14.387Z,2.25
2023-02-24T00:59:47.715Z,1.77
2023-02-24T01:02:15.593Z,1.95
2023-02-24T01:04:44.747Z,2.47
2023-02-24T01:07:13.938Z,2.42
2023-02-24T01:09:42.014Z,2.15
2023-02-24T01:12:30.304Z,2.75
2023-02-24T01:14:57.520Z,2.30
2023-02-24T01:17:25.801Z,2.63
2023-02-24T01:19:53.247Z,2.35
2023-02-24T01:22:22.911Z,2.45
2023-02-24T01:24:50.425Z,2.22
2023-02-24T01:27:19.433Z,2.75
2023-02-24T01:29:48.176Z,2.55
2023-02-24T01:32:19.364Z,2.55
2023-02-24T01:34:51.175Z,2.42
2023-02-24T01:37:19.790Z,2.40
2023-02-24T01:39:48.128Z,2.45
2023-02-24T01:42:19.979Z,3.40
2023-02-24T01:44:47.683Z,2.25
2023-02-24T01:47:18.374Z,2.38
2023-02-24T01:49:48.027Z,2.55
2023-02-24T01:52:22.366Z,2.85
2023-02-24T01:55:01.071Z,2.30
2023-02-24T01:57:31.587Z,2.45
2023-02-24T02:00:11.559Z,3.05
2023-02-24T02:02:45.957Z,2.80
2023-02-24T02:05:14.436Z,2.55
2023-02-24T02:07:43.541Z,2.25
2023-02-24T02:10:12.452Z,3.08
2023-02-24T02:12:44.773Z,1.95
2023-02-24T02:15:15.489Z,2.95
2023-02-24T02:18:07.279Z,2.35
2023-02-24T02:20:59.468Z,2.00
2023-02-24T02:23:35.898Z,3.05
2023-02-24T02:26:25.190Z,2.65
2023-02-24T02:29:07.516Z,2.70
2023-02-24T02:32:05.488Z,2.65
2023-02-24T02:34:43.429Z,2.40
2023-02-24T02:37:26.850Z,2.35
2023-02-24T02:40:16.307Z,2.35
2023-02-24T02:42:50.437Z,2.75
2023-02-24T02:45:26.450Z,1.90
2023-02-24T02:48:35.006Z,2.95
2023-02-24T02:51:11.529Z,2.05
2023-02-24T02:53:45.717Z,2.03
2023-02-24T02:56:17.892Z,2.28
2023-02-24T02:58:56.167Z,2.13
2023-02-24T03:01:32.120Z,2.22
2023-02-24T03:04:04.845Z,2.58
2023-02-24T03:06:44.089Z,2.47
2023-02-24T03:09:18.516Z,2.17
2023-02-24T03:11:53.315Z,2.00
2023-02-24T03:14:25.193Z,2.80
2023-02-24T03:16:54.216Z,2.63
2023-02-24T03:19:31.118Z,1.98
2023-02-24T03:22:06.355Z,2.30
2023-02-24T03:24:36.840Z,1.75
2023-02-24T03:27:13.649Z,2.20
2023-02-24T03:30:07.386Z,3.08
2023-02-24T03:32:51.603Z,2.20
2023-02-24T03:35:31.534Z,2.55
2023-02-24T03:38:01.641Z,2.40
2023-02-24T03:40:34.170Z,1.90
2023-02-24T03:43:11.615Z,2.03
2023-02-24T03:45:41.107Z,2.17
2023-02-24T03:48:12.384Z,3.05
2023-02-24T03:50:42.285Z,2.50
2023-02-24T03:53:23.979Z,2.25
2023-02-24T03:56:33.238Z,2.58
2023-02-24T03:59:36.682Z,1.90
2023-02-24T04:02:24.795Z,1.90
2023-02-24T04:05:06.755Z,2.35
2023-02-24T04:08:04.304Z,2.10
2023-02-24T04:11:10.530Z,2.25
2023-02-24T04:13:43.631Z,2.17
2023-02-24T04:16:36.694Z,2.17
2023-02-24T04:19:14.223Z,2.08
2023-02-24T04:21:46.233Z,2.40
2023-02-24T04:24:23.887Z,2.63
2023-02-24T04:26:53.879Z,2.20
2023-02-24T04:29:23.838Z,2.75
2023-02-24T04:31:56.776Z,2.38
2023-02-24T04:34:25.021Z,2.17
2023-02-24T04:36:52.108Z,2.53
2023-02-24T04:39:23.586Z,2.25
2023-02-24T04:41:54.363Z,1.75
2023-02-24T04:44:22.542Z,2.38
2023-02-24T04:46:51.068Z,2.38
2023-02-24T04:49:19.540Z,1.83
2023-02-24T04:51:46.664Z,1.88
2023-02-24T04:54:17.656Z,2.63
2023-02-24T04:56:50.856Z,2.28
2023-02-24T04:59:19.608Z,1.60
2023-02-24T05:01:47.470Z,2.00
2023-02-24T05:04:14.928Z,2.42
2023-02-24T05:06:44.590Z,1.80
2023-02-24T05:09:18.132Z,2.33
2023-02-24T05:11:51.144Z,2.42
2023-02-24T05:14:21.163Z,2.30
2023-02-24T05:16:49.473Z,2.42
2023-02-24T05:19:37.702Z,2.00
2023-02-24T05:22:07.250Z,2.50
2023-02-24T05:24:34.914Z,1.98
2023-02-24T05:27:04.024Z,2.10
2023-02-24T05:29:34.891Z,2.22
2023-02-24T05:32:04.332Z,2.15
2023-02-24T05:34:33.504Z,2.28
2023-02-24T05:37:04.808Z,2.00
2023-02-24T05:39:32.118Z,2.63
2023-02-24T05:42:05.471Z,2.38
2023-02-24T05:44:32.915Z,1.80
2023-02-24T05:46:59.897Z,3.00
2023-02-24T05:49:33.364Z,2.85
2023-02-24T05:52:07.872Z,2.67
2023-02-24T05:54:39.694Z,2.90
2023-02-24T05:57:13.272Z,3.13
2023-02-24T05:59:41.849Z,3.13
2023-02-24T06:02:13.023Z,3.15
2023-02-24T06:04:51.711Z,3.35
2023-02-24T06:07:22.936Z,3.05
2023-02-24T06:09:53.996Z,3.05
2023-02-24T06:12:33.884Z,2.80
2023-02-24T06:15:02.455Z,2.20
2023-02-24T06:17:29.745Z,2.50
2023-02-24T06:19:59.726Z,2.30
2023-02-24T06:22:27.608Z,2.40
2023-02-24T06:24:56.994Z,2.42
2023-02-24T06:27:25.237Z,2.97
2023-02-24T06:29:55.721Z,3.05
2023-02-24T06:32:26.219Z,2.97
2023-02-24T06:34:54.733Z,2.92
2023-02-24T06:37:23.428Z,2.75
2023-02-24T06:39:50.769Z,2.80
2023-02-24T06:42:18.358Z,3.15
2023-02-24T06:44:45.488Z,2.92
2023-02-24T06:47:13.975Z,2.72
2023-02-24T06:49:43.080Z,2.50
2023-02-24T06:52:11.830Z,2.35
2023-02-24T06:54:39.423Z,3.75
2023-02-24T06:57:09.114Z,2.90
2023-02-24T06:59:36.093Z,2.70
2023-02-24T07:02:03.595Z,2.88
2023-02-24T07:04:33.410Z,2.95
2023-02-24T07:07:04.076Z,2.80
2023-02-24T07:09:32.652Z,2.72
2023-02-24T07:12:02.832Z,2.88
2023-02-24T07:14:33.197Z,3.33
2023-02-24T07:17:00.675Z,2.58
2023-02-24T07:19:30.374Z,2.75
2023-02-24T07:22:00.626Z,3.85
2023-02-24T07:24:40.737Z,3.42
2023-02-24T07:27:11.893Z,3.05
2023-02-24T07:29:39.495Z,3.53
2023-02-24T07:32:10.794Z,2.97
2023-02-24T07:34:40.545Z,3.38
2023-02-24T07:37:09.394Z,3.42
2023-02-24T07:39:38.362Z,3.80
2023-02-24T07:42:07.753Z,3.88
2023-02-24T07:44:45.045Z,4.60
2023-02-24T07:47:12.364Z,3.95
2023-02-24T07:49:41.273Z,4.20
2023-02-24T07:52:09.342Z,5.45
2023-02-24T07:54:39.684Z,5.38
2023-02-24T07:57:13.776Z,4.82
2023-02-24T07:59:48.599Z,5.00
2023-02-24T08:02:18.539Z,5.57
2023-02-24T08:04:50.513Z,4.47
2023-02-24T08:07:25.404Z,4.45
2023-02-24T08:10:14.251Z,4.40
2023-02-24T08:12:43.003Z,4.18
2023-02-24T08:15:17.494Z,4.43
2023-02-24T08:17:47.653Z,4.38
2023-02-24T08:20:15.039Z,3.53
2023-02-24T08:22:44.435Z,3.25
2023-02-24T08:25:19.174Z,3.75
2023-02-24T08:28:07.894Z,3.63
2023-02-24T08:30:40.894Z,4.00
2023-02-24T08:33:11.590Z,2.92
2023-02-24T08:35:45.288Z,3.25
2023-02-24T08:38:14.559Z,4.03
2023-02-24T08:40:52.316Z,4.60
2023-02-24T08:43:27.896Z,4.30
2023-02-24T08:46:06.287Z,4.38
2023-02-24T08:48:42.689Z,4.25
2023-02-24T08:51:23.809Z,4.45
2023-02-24T08:53:53.387Z,3.67
2023-02-24T08:56:29.555Z,3.47
2023-02-24T08:59:05.563Z,3.88
2023-02-24T09:01:36.089Z,4.90
2023-02-24T09:04:19.893Z,4.10
2023-02-24T09:07:10.681Z,4.38
2023-02-24T09:09:42.587Z,4.22
2023-02-24T09:12:21.973Z,4.45
2023-02-24T09:14:56.915Z,4.22
2023-02-24T09:17:40.963Z,3.75
2023-02-24T09:20:28.129Z,3.90
2023-02-24T09:23:07.930Z,2.83
2023-02-24T09:25:41.177Z,3.50
2023-02-24T09:28:17.711Z,3.67
2023-02-24T09:30:57.193Z,3.17
2023-02-24T09:33:42.416Z,3.85
2023-02-24T09:36:28.590Z,3.58
2023-02-24T09:39:01.691Z,3.90
2023-02-24T09:41:54.686Z,4.05
2023-02-24T09:44:33.922Z,3.70
2023-02-24T09:47:41.105Z,3.75
2023-02-24T09:50:40.672Z,3.83
2023-02-24T09:53:19.700Z,3.97
2023-02-24T09:56:10.447Z,3.50
2023-02-24T09:58:48.157Z,4.10
2023-02-24T10:01:33.854Z,3.60
2023-02-24T10:04:20.137Z,3.70
2023-02-24T10:06:50.373Z,2.80
2023-02-24T10:09:23.875Z,3.67
2023-02-24T10:12:04.060Z,4.05
2023-02-24T10:14:51.295Z,3.45
2023-02-24T10:17:25.264Z,3.20
2023-02-24T10:20:00.933Z,3.33
2023-02-24T10:23:05.334Z,3.47
2023-02-24T10:25:54.379Z,3.05
2023-02-24T10:28:52.113Z,4.25
2023-02-24T10:31:35.801Z,3.88
2023-02-24T10:34:08.671Z,3.35
2023-02-24T10:36:37.031Z,3.95
2023-02-24T10:39:08.665Z,3.28
2023-02-24T10:41:57.827Z,3.70
2023-02-24T10:44:36.815Z,4.38
2023-02-24T10:47:12.235Z,4.28
2023-02-24T10:49:59.357Z,4.28
2023-02-24T10:52:56.273Z,4.32
2023-02-24T10:55:29.187Z,4.85
2023-02-24T10:58:16.214Z,3.85
2023-02-24T11:01:12.599Z,5.50
2023-02-24T11:03:48.252Z,4.18
2023-02-24T11:06:31.168Z,6.28
2023-02-24T11:09:19.364Z,5.50
2023-02-24T11:12:06.654Z,5.50
2023-02-24T11:15:16.415Z,5.95
2023-02-24T11:17:54.777Z,6.07
2023-02-24T11:20:47.741Z,5.85
2023-02-24T11:23:38.441Z,7.15
2023-02-24T11:26:27.940Z,7.53
2023-02-24T11:29:15.629Z,7.28
2023-02-24T11:31:52.168Z,8.40
2023-02-24T11:34:29.413Z,8.00
2023-02-24T11:37:08.459Z,8.90
2023-02-24T11:39:50.523Z,9.25
2023-02-24T11:42:31.386Z,9.60
2023-02-24T11:45:22.892Z,10.45
2023-02-24T11:48:03.247Z,9.88
2023-02-24T11:50:53.946Z,11.43
2023-02-24T11:53:24.003Z,11.90
2023-02-24T11:56:44.426Z,11.55
2023-02-24T11:59:19.261Z,11.30
2023-02-24T12:01:55.680Z,11.82
2023-02-24T12:04:40.399Z,12.43
2023-02-24T12:07:14.084Z,12.15
2023-02-24T12:10:10.670Z,12.52
2023-02-24T12:12:54.960Z,13.80
2023-02-24T12:15:36.081Z,13.80
2023-02-24T12:18:26.545Z,13.05
2023-02-24T12:21:11.642Z,13.65
2023-02-24T12:23:48.383Z,14.60
2023-02-24T12:26:30.483Z,15.90
2023-02-24T12:29:19.002Z,14.35
2023-02-24T12:32:16.077Z,15.60
2023-02-24T12:34:49.444Z,14.50
2023-02-24T12:37:47.338Z,15.10
2023-02-24T12:40:40.333Z,14.90
2023-02-24T12:43:29.926Z,14.23
2023-02-24T12:46:20.053Z,16.05
2023-02-24T12:49:00.734Z,15.45
2023-02-24T12:51:42.456Z,14.45
2023-02-24T12:54:20.449Z,15.00
2023-02-24T12:56:53.400Z,13.77
2023-02-24T12:59:25.336Z,14.40
2023-02-24T13:02:01.465Z,13.18
2023-02-24T13:04:41.332Z,13.45
2023-02-24T13:07:29.149Z,14.68
2023-02-24T13:10:08.332Z,13.10
2023-02-24T13:13:14.133Z,14.13
2023-02-24T13:16:00.947Z,14.37
2023-02-24T13:18:34.003Z,13.85
2023-02-24T13:21:06.309Z,13.98
2023-02-24T13:23:33.867Z,15.73
2023-02-24T13:26:01.261Z,15.30
2023-02-24T13:28:31.491Z,14.30
2023-02-24T13:31:05.878Z,13.27
2023-02-24T13:33:35.359Z,12.85
2023-02-24T13:36:10.991Z,12.73
2023-02-24T13:38:41.944Z,12.75
2023-02-24T13:41:36.530Z,11.65
2023-02-24T13:44:21.379Z,11.63
2023-02-24T13:47:13.205Z,12.05
2023-02-24T13:50:06.045Z,11.15
2023-02-24T13:52:52.075Z,11.73
2023-02-24T13:55:56.963Z,11.65
2023-02-24T13:58:46.894Z,10.38
2023-02-24T14:01:18.364Z,10.13
2023-02-24T14:04:01.788Z,9.07
2023-02-24T14:06:29.382Z,8.98
2023-02-24T14:09:00.978Z,9.15
2023-02-24T14:11:31.554Z,8.48
2023-02-24T14:13:59.594Z,7.63
2023-02-24T14:16:35.971Z,7.15
2023-02-24T14:19:04.042Z,7.55
2023-02-24T14:21:33.817Z,7.55
2023-02-24T14:24:11.237Z,6.93
2023-02-24T14:26:49.908Z,6.00
2023-02-24T14:29:32.397Z,7.90
2023-02-24T14:32:00.212Z,5.40
2023-02-24T14:34:31.994Z,5.13
2023-02-24T14:37:02.601Z,5.50
2023-02-24T14:39:31.869Z,5.22
2023-02-24T14:42:08.765Z,5.32
2023-02-24T14:44:45.878Z,5.57
2023-02-24T14:47:15.031Z,5.55
2023-02-24T14:49:51.644Z,4.40
2023-02-24T14:52:30.865Z,5.28
2023-02-24T14:55:16.705Z,4.28
2023-02-24T15:00:24.412Z,4.40
2023-02-24T15:03:11.070Z,4.90
2023-02-24T15:05:47.902Z,4.53
2023-02-24T15:08:30.177Z,5.20
2023-02-24T15:10:58.684Z,5.90
2023-02-24T15:13:35.722Z,4.43
2023-02-24T15:16:12.871Z,4.53
2023-02-24T15:18:41.542Z,4.20
2023-02-24T15:21:23.923Z,4.35
2023-02-24T15:24:03.368Z,4.43
2023-02-24T15:26:35.326Z,4.47
2023-02-24T15:29:21.423Z,4.95
2023-02-24T15:31:50.145Z,4.07
2023-02-24T15:34:32.517Z,5.28
2023-02-24T15:37:04.523Z,4.95
2023-02-24T15:39:34.404Z,4.60
2023-02-24T15:42:16.925Z,3.42
2023-02-24T15:45:23.399Z,5.35
2023-02-24T15:47:56.253Z,10.27
2023-02-24T15:50:24.165Z,6.43
2023-02-24T15:52:51.121Z,4.95
2023-02-24T15:55:22.110Z,5.53
2023-02-24T15:58:00.926Z,5.25
2023-02-24T16:00:28.904Z,3.78
2023-02-24T16:02:56.017Z,4.80
2023-02-24T16:05:23.394Z,4.15
2023-02-24T16:07:50.820Z,4.68
2023-02-24T16:10:30.209Z,3.75
2023-02-24T16:13:00.491Z,4.50
2023-02-24T16:15:38.283Z,3.38
2023-02-24T16:18:14.451Z,3.35
2023-02-24T16:20:42.295Z,4.50
2023-02-24T16:23:10.844Z,4.53
2023-02-24T16:25:42.518Z,4.97
2023-02-24T16:28:20.199Z,4.47
2023-02-24T16:30:49.817Z,4.95
2023-02-24T16:33:18.077Z,3.90
2023-02-24T16:35:46.527Z,3.65
2023-02-24T16:38:15.625Z,4.07
2023-02-24T16:40:48.515Z,4.57
2023-02-24T16:43:16.330Z,4.88
2023-02-24T16:45:45.173Z,3.70
2023-02-24T16:48:25.125Z,3.25
2023-02-24T16:50:52.507Z,4.35
2023-02-24T16:53:22.788Z,3.30
2023-02-24T16:55:50.308Z,3.97
2023-02-24T16:58:17.886Z,3.78
2023-02-24T17:00:47.910Z,4.63
2023-02-24T17:03:27.654Z,4.32
2023-02-24T17:05:55.630Z,3.85
2023-02-24T17:08:23.354Z,3.97
2023-02-24T17:10:51.590Z,3.17
2023-02-24T17:13:21.049Z,3.85
2023-02-24T17:15:50.043Z,2.90
2023-02-24T17:18:17.259Z,3.60
2023-02-24T17:20:45.277Z,3.65
2023-02-24T17:23:12.244Z,3.45
2023-02-24T17:25:39.510Z,2.95
2023-02-24T17:28:06.822Z,3.25
2023-02-24T17:30:35.623Z,3.08
2023-02-24T17:33:03.038Z,4.28
2023-02-24T17:35:30.420Z,4.22
2023-02-24T17:37:57.473Z,2.28
2023-02-24T17:40:25.776Z,2.33
2023-02-24T17:42:52.989Z,2.58
2023-02-24T17:45:20.316Z,2.47
2023-02-24T17:47:47.485Z,2.30
2023-02-24T17:50:14.795Z,2.83
2023-02-24T17:52:42.060Z,2.83
2023-02-24T17:55:10.327Z,2.97
2023-02-24T17:57:40.018Z,2.90
2023-02-24T18:00:08.764Z,3.28
2023-02-24T18:02:42.263Z,3.42
2023-02-24T18:05:11.632Z,3.75
2023-02-24T18:07:39.143Z,3.78
2023-02-24T18:10:07.201Z,4.72
2023-02-24T18:12:34.213Z,3.30
2023-02-24T18:15:08.739Z,3.42
2023-02-24T18:17:37.686Z,3.72
2023-02-24T18:20:06.435Z,3.47
2023-02-24T18:22:33.821Z,2.83
2023-02-24T18:25:01.229Z,3.47
2023-02-24T18:27:28.376Z,3.70
2023-02-24T18:29:55.462Z,4.10
2023-02-24T18:32:23.227Z,4.47
2023-02-24T18:34:50.507Z,2.85
2023-02-24T18:37:17.790Z,3.13
2023-02-24T18:39:44.946Z,3.05
2023-02-24T18:42:11.949Z,3.53
2023-02-24T18:44:40.312Z,3.03
2023-02-24T18:47:09.902Z,3.30
2023-02-24T18:49:37.814Z,2.70
2023-02-24T18:52:07.349Z,2.58
2023-02-24T18:54:35.097Z,2.25
2023-02-24T18:57:02.168Z,2.28
2023-02-24T18:59:29.281Z,2.08
2023-02-24T19:01:57.377Z,2.70
2023-02-24T19:04:25.194Z,2.38
2023-02-24T19:06:52.834Z,2.53
2023-02-24T19:09:24.060Z,2.45
2023-02-24T19:11:52.549Z,3.15
2023-02-24T19:14:20.031Z,3.08
2023-02-24T19:16:47.053Z,2.42
2023-02-24T19:19:14.875Z,2.97
2023-02-24T19:21:45.495Z,2.65
2023-02-24T19:24:14.050Z,2.50
2023-02-24T19:26:42.841Z,3.22
2023-02-24T19:29:11.021Z,2.38
2023-02-24T19:31:39.120Z,3.03
2023-02-24T19:34:10.161Z,2.65
2023-02-24T19:36:37.829Z,2.95
2023-02-24T19:39:06.054Z,3.35
2023-02-24T19:41:33.228Z,3.47
2023-02-24T19:44:00.224Z,3.53
2023-02-24T19:46:27.637Z,3.35
2023-02-24T19:48:57.115Z,2.55
2023-02-24T19:51:24.507Z,3.25
2023-02-24T19:53:57.336Z,2.78
2023-02-24T19:56:30.159Z,3.13
2023-02-24T19:58:58.972Z,2.17
2023-02-24T20:01:28.059Z,3.63
2023-02-24T20:04:01.780Z,4.25
2023-02-24T20:06:40.018Z,2.67
2023-02-24T20:09:10.056Z,2.88
2023-02-24T20:11:40.633Z,2.10
2023-02-24T20:14:08.430Z,2.30
2023-02-24T20:16:37.677Z,2.88
2023-02-24T20:19:06.119Z,3.17
2023-02-24T20:21:34.260Z,3.03
2023-02-24T20:24:07.025Z,2.95
2023-02-24T20:26:35.341Z,4.20
2023-02-24T20:29:02.539Z,4.28
2023-02-24T20:31:30.016Z,4.78
2023-02-24T20:33:57.016Z,4.68
2023-02-24T20:36:26.694Z,6.40
2023-02-24T20:38:54.858Z,4.75
2023-02-24T20:41:22.607Z,5.18
2023-02-24T20:43:49.975Z,4.57
2023-02-24T20:46:24.298Z,4.90
2023-02-24T20:48:56.792Z,5.65
2023-02-24T20:51:26.991Z,4.25
2023-02-24T20:53:58.139Z,6.15
2023-02-24T20:56:28.484Z,4.50
2023-02-24T20:59:20.663Z,4.72
2023-02-24T21:01:49.369Z,4.72
2023-02-24T21:04:19.063Z,4.05
2023-02-24T21:06:48.186Z,4.22
2023-02-24T21:09:16.119Z,6.03
2023-02-24T21:11:43.233Z,4.25
2023-02-24T21:14:15.954Z,4.47
2023-02-24T21:16:43.290Z,4.38
2023-02-24T21:19:10.272Z,4.78
2023-02-24T21:21:37.380Z,5.35
2023-02-24T21:24:05.179Z,4.15
2023-02-24T21:26:32.456Z,4.63
2023-02-24T21:28:59.787Z,4.97
2023-02-24T21:31:27.637Z,4.18
2023-02-24T21:33:55.373Z,4.25
2023-02-24T21:36:26.437Z,5.72
2023-02-24T21:38:54.476Z,5.63
2023-02-24T21:41:23.976Z,5.35
2023-02-24T21:43:55.820Z,4.43
2023-02-24T21:46:28.748Z,4.47
2023-02-24T21:48:59.459Z,4.03
2023-02-24T21:51:27.846Z,4.60
2023-02-24T21:53:55.353Z,4.75
2023-02-24T21:56:27.087Z,3.50
2023-02-24T21:58:59.082Z,3.92
2023-02-24T22:01:32.259Z,4.57
2023-02-24T22:04:02.519Z,3.13
2023-02-24T22:06:32.117Z,3.15
2023-02-24T22:09:00.530Z,4.07
2023-02-24T22:11:27.962Z,4.28
2023-02-24T22:13:55.271Z,4.13
2023-02-24T22:16:24.762Z,4.30
2023-02-24T22:18:53.505Z,3.35
2023-02-24T22:21:23.740Z,3.25
2023-02-24T22:23:53.546Z,2.80
2023-02-24T22:26:25.843Z,4.22
2023-02-24T22:28:56.788Z,4.07
2023-02-24T22:31:27.428Z,3.95
2023-02-24T22:33:54.438Z,4.72
2023-02-24T22:36:25.348Z,3.58
2023-02-24T22:38:53.425Z,3.75
2023-02-24T22:41:23.367Z,3.70
2023-02-24T22:43:51.903Z,3.78
2023-02-24T22:46:23.634Z,2.92
2023-02-24T22:48:50.901Z,3.45
2023-02-24T22:51:19.183Z,3.70
2023-02-24T22:53:49.064Z,3.97
2023-02-24T22:56:18.653Z,3.20
2023-02-24T22:58:45.572Z,3.15
2023-02-24T23:01:26.291Z,3.60
2023-02-24T23:03:53.938Z,3.58
2023-02-24T23:06:27.508Z,3.45
2023-02-24T23:08:55.238Z,3.28
2023-02-24T23:11:31.035Z,3.03
2023-02-24T23:14:00.209Z,2.83
2023-02-24T23:16:30.044Z,3.38
2023-02-24T23:18:59.212Z,4.05
2023-02-24T23:21:32.013Z,3.22
2023-02-24T23:24:00.317Z,3.50
2023-02-24T23:26:36.373Z,4.05
2023-02-24T23:29:04.519Z,3.20
2023-02-24T23:31:32.090Z,3.22
2023-02-24T23:33:59.366Z,4.95
2023-02-24T23:36:26.630Z,4.00
2023-02-24T23:38:53.716Z,2.97
2023-02-24T23:41:20.950Z,3.25
2023-02-24T23:43:48.258Z,2.85
2023-02-24T23:46:15.246Z,3.10
2023-02-24T23:48:42.274Z,4.20
2023-02-24T23:51:13.718Z,3.53
2023-02-24T23:53:43.134Z,3.13
2023-02-24T23:56:22.446Z,3.95
2023-02-24T23:58:54.855Z,3.22
